Погода Кошанкольна неделю

Западно-Казахстанская область, Казахстан

16 - 22 июля
  • 16июля
    Сегодня
    +20°
    +34°
    Ясно и безоблачно
    ВремяПогодаТемператураВлажностьДавлениеВетер, м/сВероятность осадков
    02:00Ясно и безоблачно+25°C46 %756 мм3.9 м/с2 %
    05:00Ясно и безоблачно+22°C56 %756 мм3.1 м/с2 %
    08:00Ясно и безоблачно+24°C55 %757 мм3.6 м/с2 %
    11:00Ясно и безоблачно+29°C36 %757 мм5.1 м/с2 %
    14:00Ясно и безоблачно+31°C28 %756 мм5.3 м/с2 %
    17:00Практически безоблачно+34°C24 %756 мм6.4 м/с2 %
    20:00Ясно и безоблачно+32°C26 %756 мм5.9 м/с2 %
    23:00Ясно и безоблачно+27°C29 %757 мм5.2 м/с2 %
  • 17июля
    Среда
    +19°
    +33°
    Небольшая облачность
    ВремяПогодаТемператураВлажностьДавлениеВетер, м/сВероятность осадков
    02:00Ясно и безоблачно+23°C34 %757 мм3.4 м/с2 %
    05:00Ясно и безоблачно+20°C46 %757 мм2.9 м/с2 %
    08:00Ясно и безоблачно+23°C49 %758 мм3.1 м/с2 %
    11:00Небольшая облачность+29°C39 %758 мм4.5 м/с2 %
    14:00Небольшая облачность+31°C29 %758 мм3.9 м/с2 %
    17:00Практически безоблачно+32°C25 %757 мм5.0 м/с2 %
    20:00Небольшая облачность+32°C28 %757 мм5.5 м/с2 %
    23:00Ясно и безоблачно+26°C37 %757 мм2.8 м/с2 %
  • 18июля
    Четверг
    +23°
    +34°
    Ясно и безоблачно
    ВремяПогодаТемператураВлажностьДавлениеВетер, м/сВероятность осадков
    02:00Ясно и безоблачно+23°C42 %757 мм3.3 м/с2 %
    05:00Ясно и безоблачно+20°C51 %757 мм2.7 м/с2 %
    08:00Ясно и безоблачно+22°C48 %757 мм3.0 м/с2 %
    11:00Практически безоблачно+28°C34 %757 мм5.5 м/с2 %
    14:00Ясно и безоблачно+31°C28 %756 мм4.9 м/с2 %
    17:00Ясно и безоблачно+33°C27 %756 мм4.5 м/с2 %
    20:00Ясно и безоблачно+33°C25 %755 мм2.6 м/с2 %
    23:00Ясно и безоблачно+28°C33 %755 мм0.9 м/с2 %
  • 19июля
    Пятница
    +20°
    +33°
    Практически безоблачно
    ВремяПогодаТемператураВлажностьДавлениеВетер, м/сВероятность осадков
    02:00Практически безоблачно+25°C40 %754 мм2.6 м/с2 %
    05:00Практически безоблачно+24°C39 %753 мм3.4 м/с2 %
    08:00Небольшая облачность+25°C39 %753 мм2.9 м/с3 %
    11:00Облачно с прояснениями+25°C53 %753 мм2.3 м/с11 %
    14:00Практически безоблачно+29°C42 %752 мм1.5 м/с12 %
    17:00Ясно и безоблачно+33°C37 %751 мм2.1 м/с11 %
    20:00Облачно с прояснениями+32°C44 %751 мм3.4 м/с10 %
    23:00Облачно с прояснениями+27°C58 %751 мм2.4 м/с8 %
Мы используем cookies
Соглашаюсь